Time;durP1;ratioP1;P1;durP2;ratioP2;P2;SDS_P1;SDS_P2;PMS_P1;PMS_P2;Temp;Humidity;BMP_temperature;BMP_pressure;BME280_temperature;BME280_humidity;BME280_pressure;Samples;Min_cycle;Max_cycle;Signal;HPM_P1;HPM_P2
2020/06/02 00:04:26;;;;;;;7.2;2.6;;;;;;;12.27;71.62305;940.0101;;;;
2020/06/02 00:06:43;;;;;;;4.5;2.3;;;;;;;12.28;71.3623;939.9623;;;;
2020/06/02 00:09:08;;;;;;;7.2;2.8;;;;;;;12.22;71.43164;939.9875;;;;
2020/06/02 00:11:33;;;;;;;7;2.9;;;;;;;12.13;71.99121;939.9899;;;;
2020/06/02 00:15:56;;;;;;;8.6;2.6;;;;;;;12.09;72.0166;939.8707;;;;
2020/06/02 00:16:24;;;;;;;3.3;2.3;;;;;;;12.11;71.94141;939.9275;;;;
2020/06/02 00:18:55;;;;;;;5.3;2.5;;;;;;;12.01;72.47461;939.867;;;;
2020/06/02 00:21:14;;;;;;;4.8;2.5;;;;;;;11.83;73.47559;939.8513;;;;
2020/06/02 00:23:39;;;;;;;4.8;2.6;;;;;;;11.69;73.4834;939.8073;;;;
2020/06/02 00:26:04;;;;;;;6.1;2.7;;;;;;;11.44;74.5752;939.8321;;;;
2020/06/02 00:28:31;;;;;;;5.2;2.5;;;;;;;11.27;75.31348;939.6621;;;;
2020/06/02 00:30:56;;;;;;;5.4;2.5;;;;;;;11.35;74.94824;939.6828;;;;
2020/06/02 00:33:23;;;;;;;4.3;2.1;;;;;;;11.49;74.21777;939.6945;;;;
2020/06/02 00:35:48;;;;;;;5.1;2.4;;;;;;;11.56;74.12598;939.6871;;;;
2020/06/02 00:38:14;;;;;;;5.1;2.5;;;;;;;11.53;74.70508;939.616;;;;
2020/06/02 00:40:42;;;;;;;4;2.6;;;;;;;11.67;73.75684;939.5989;;;;
2020/06/02 00:43:07;;;;;;;5.2;2.6;;;;;;;11.7;73.63672;939.6136;;;;
2020/06/02 00:45:32;;;;;;;4.6;2.8;;;;;;;11.6;73.75586;939.6053;;;;
2020/06/02 00:47:57;;;;;;;8.1;2.9;;;;;;;11.5;73.8877;939.5765;;;;
2020/06/02 00:50:24;;;;;;;4.5;2.4;;;;;;;11.4;74.25977;939.5994;;;;
2020/06/02 00:52:49;;;;;;;3.2;2.3;;;;;;;11.27;74.61523;939.4797;;;;
2020/06/02 00:55:17;;;;;;;4.3;2.4;;;;;;;11.14;75.16602;939.51;;;;
2020/06/02 00:57:42;;;;;;;4.7;2.7;;;;;;;11.1;75.26074;939.5042;;;;
2020/06/02 01:00:09;;;;;;;4.3;2.5;;;;;;;11.16;75.06543;939.511;;;;
2020/06/02 01:02:34;;;;;;;3.9;2.3;;;;;;;11.14;75.06152;939.4749;;;;
2020/06/02 01:05:03;;;;;;;4.2;2.5;;;;;;;11.13;75.27832;939.5378;;;;
2020/06/02 01:07:30;;;;;;;4.6;2.7;;;;;;;11.13;75.05957;939.5203;;;;
2020/06/02 01:09:55;;;;;;;4.2;2.4;;;;;;;11.17;74.79102;939.4808;;;;
2020/06/02 01:12:20;;;;;;;4.1;2.4;;;;;;;11.21;74.43359;939.4524;;;;
2020/06/02 01:14:48;;;;;;;4;2.4;;;;;;;11.06;74.90039;939.4185;;;;
2020/06/02 01:17:34;;;;;;;4.7;2.6;;;;;;;10.83;76.01172;939.3928;;;;
2020/06/02 01:19:41;;;;;;;4.3;2.6;;;;;;;10.83;76.22852;939.337;;;;
2020/06/02 01:24:33;;;;;;;5.3;2.8;;;;;;;10.83;76.32227;939.4064;;;;
2020/06/02 01:26:55;;;;;;;4.9;2.7;;;;;;;10.88;76.0918;939.3488;;;;
2020/06/02 01:29:21;;;;;;;6.6;2.8;;;;;;;10.95;75.65723;939.3558;;;;
2020/06/02 01:31:46;;;;;;;6.4;2.8;;;;;;;10.94;75.5293;939.2768;;;;
2020/06/02 01:34:14;;;;;;;4.8;2.6;;;;;;;10.96;75.36328;939.2738;;;;
2020/06/02 01:36:39;;;;;;;4.3;2.4;;;;;;;11;75.01367;939.2542;;;;
2020/06/02 01:39:06;;;;;;;3;2.4;;;;;;;10.96;75.19141;939.2866;;;;
2020/06/02 01:41:31;;;;;;;6.1;2.8;;;;;;;11;74.58008;939.1699;;;;
2020/06/02 01:43:57;;;;;;;3.4;2.3;;;;;;;10.92;75.06738;939.2471;;;;
2020/06/02 01:46:22;;;;;;;4.9;2.5;;;;;;;10.87;75.15137;939.2211;;;;
2020/06/02 01:48:49;;;;;;;4.6;2.4;;;;;;;10.87;75.08301;939.2219;;;;
2020/06/02 01:51:14;;;;;;;4.3;2.6;;;;;;;10.73;75.75586;939.2203;;;;
2020/06/02 01:53:39;;;;;;;10;3.5;;;;;;;10.57;76.50391;939.1539;;;;
2020/06/02 01:56:05;;;;;;;4.9;2.5;;;;;;;10.52;76.67676;939.1541;;;;
2020/06/02 01:58:31;;;;;;;3.9;2.5;;;;;;;10.59;76.26758;939.1763;;;;
2020/06/02 02:01:17;;;;;;;4.8;2.6;;;;;;;10.62;76.10254;939.1666;;;;
2020/06/02 02:04:11;;;;;;;5.1;2.6;;;;;;;10.67;75.85938;939.1376;;;;
2020/06/02 02:08:15;;;;;;;4;2.4;;;;;;;10.6;76.26855;939.2019;;;;
2020/06/02 02:10:44;;;;;;;3.4;2.4;;;;;;;10.61;76.27051;939.1813;;;;
2020/06/02 02:13:15;;;;;;;3.2;2.6;;;;;;;10.69;75.75977;939.153;;;;
2020/06/02 02:15:45;;;;;;;4.5;2.7;;;;;;;10.73;75.58496;939.2242;;;;
2020/06/02 02:20:49;;;;;;;4.1;2.6;;;;;;;10.77;75.39648;939.2278;;;;
2020/06/02 02:23:14;;;;;;;6.2;2.7;;;;;;;10.77;75.05566;939.2375;;;;
2020/06/02 02:25:15;;;;;;;9.9;3.3;;;;;;;10.72;74.96582;939.2617;;;;
2020/06/02 02:27:41;;;;;;;7.6;2.9;;;;;;;10.72;74.93066;939.2902;;;;
2020/06/02 02:30:06;;;;;;;5.6;2.5;;;;;;;10.7;74.97266;939.2151;;;;
2020/06/02 02:34:56;;;;;;;4.5;2.7;;;;;;;10.58;75.45508;939.2344;;;;
2020/06/02 02:37:24;;;;;;;6.6;3;;;;;;;10.58;75.39844;939.1897;;;;
2020/06/02 02:39:49;;;;;;;5.6;2.9;;;;;;;10.44;76.61719;939.1827;;;;
2020/06/02 02:44:42;;;;;;;4.3;2.8;;;;;;;10.26;77.21387;939.1994;;;;
2020/06/02 02:47:12;;;;;;;4.1;2.7;;;;;;;10.32;76.82422;939.1937;;;;
2020/06/02 02:49:40;;;;;;;5;2.8;;;;;;;10.32;76.63184;939.2208;;;;
2020/06/02 02:52:00;;;;;;;5.9;2.6;;;;;;;10.36;76.23926;939.2388;;;;
2020/06/02 02:54:28;;;;;;;4.6;2.7;;;;;;;10.38;76.05957;939.2637;;;;
2020/06/02 02:56:49;;;;;;;4.6;2.5;;;;;;;10.35;76.21484;939.2355;;;;
2020/06/02 02:59:15;;;;;;;5.3;2.7;;;;;;;10.24;76.78711;939.278;;;;
2020/06/02 03:01:41;;;;;;;3.5;2.8;;;;;;;10.19;76.82617;939.2299;;;;
2020/06/02 03:04:07;;;;;;;5.7;3;;;;;;;10.12;77.41797;939.2759;;;;
2020/06/02 03:06:32;;;;;;;3.6;2.6;;;;;;;10.16;77.19531;939.2222;;;;
2020/06/02 03:09:01;;;;;;;7.2;3;;;;;;;10.15;77.14941;939.2731;;;;
2020/06/02 03:11:26;;;;;;;5.6;2.9;;;;;;;10.19;76.88184;939.3045;;;;
2020/06/02 03:13:52;;;;;;;9.9;3.7;;;;;;;10.22;76.64746;939.3055;;;;
2020/06/02 03:16:29;;;;;;;7.1;2.8;;;;;;;10.22;76.50977;939.3183;;;;
2020/06/02 03:19:55;;;;;;;4.3;2.8;;;;;;;10.22;76.40918;939.3159;;;;
2020/06/02 03:21:10;;;;;;;5.7;2.7;;;;;;;10.24;76.17285;939.3519;;;;
2020/06/02 03:23:37;;;;;;;9.7;3.5;;;;;;;10.16;76.43164;939.3154;;;;
2020/06/02 03:26:02;;;;;;;7.9;3.8;;;;;;;10.1;76.4209;939.309;;;;
2020/06/02 03:28:31;;;;;;;7.3;3.7;;;;;;;9.9;77.3877;939.3251;;;;
2020/06/02 03:30:56;;;;;;;7.6;3.7;;;;;;;9.78;78.17578;939.3789;;;;
2020/06/02 03:33:21;;;;;;;8.3;3.4;;;;;;;9.83;78.16113;939.3195;;;;
2020/06/02 03:35:47;;;;;;;14.6;4.4;;;;;;;9.73;78.27148;939.3577;;;;
2020/06/02 03:38:12;;;;;;;8.5;3.4;;;;;;;9.81;78.19238;939.3555;;;;
2020/06/02 03:40:37;;;;;;;6.9;3.5;;;;;;;9.84;78.29004;939.4047;;;;
2020/06/02 03:43:03;;;;;;;7.7;3;;;;;;;9.87;78.15918;939.4648;;;;
2020/06/02 03:45:35;;;;;;;4.4;3;;;;;;;9.79;78.6123;939.5008;;;;
2020/06/02 03:48:00;;;;;;;9.9;3.8;;;;;;;9.88;78.09277;939.434;;;;
2020/06/02 03:50:25;;;;;;;8.4;3.1;;;;;;;9.88;77.93164;939.3925;;;;
2020/06/02 03:52:52;;;;;;;7.5;3.4;;;;;;;9.93;77.54102;939.4472;;;;
2020/06/02 03:55:17;;;;;;;6.8;3.4;;;;;;;9.92;77.58594;939.3582;;;;
2020/06/02 03:57:43;;;;;;;11.4;3.3;;;;;;;9.86;77.84863;939.4877;;;;
2020/06/02 04:02:30;;;;;;;10.2;3.5;;;;;;;10.01;77.80762;939.5219;;;;
2020/06/02 04:04:56;;;;;;;9.1;3.4;;;;;;;9.93;78.05566;939.4895;;;;
2020/06/02 04:07:23;;;;;;;5.3;2.8;;;;;;;9.9;78.15332;939.6124;;;;
2020/06/02 04:09:47;;;;;;;6.6;3.3;;;;;;;9.95;77.94434;939.6091;;;;
2020/06/02 04:12:45;;;;;;;7.2;3.1;;;;;;;10.05;77.49512;939.6528;;;;
2020/06/02 04:14:37;;;;;;;7.6;3;;;;;;;10.12;77.16602;939.6044;;;;
2020/06/02 04:17:02;;;;;;;7.3;2.7;;;;;;;10.11;77.11719;939.5446;;;;
2020/06/02 04:19:30;;;;;;;4.3;2.7;;;;;;;10.1;77.01367;939.5978;;;;
2020/06/02 04:21:55;;;;;;;5.4;2.9;;;;;;;9.99;77.6123;939.5873;;;;
2020/06/02 04:24:21;;;;;;;9.7;3;;;;;;;9.96;77.66113;939.5694;;;;
2020/06/02 04:26:46;;;;;;;10.4;3.5;;;;;;;9.88;77.94238;939.5078;;;;
2020/06/02 04:29:13;;;;;;;7.1;3.3;;;;;;;9.84;78.30273;939.5544;;;;
2020/06/02 04:31:38;;;;;;;4.1;3.1;;;;;;;9.9;78.16309;939.5662;;;;
2020/06/02 04:34:05;;;;;;;4.6;2.9;;;;;;;9.96;78.4043;939.6046;;;;
2020/06/02 04:36:30;;;;;;;7;3.3;;;;;;;10.07;77.76172;939.5927;;;;
2020/06/02 04:38:56;;;;;;;10.9;3.5;;;;;;;10.16;77.23047;939.5898;;;;
2020/06/02 04:41:21;;;;;;;11.3;3.7;;;;;;;10.23;76.83105;939.5508;;;;
2020/06/02 04:43:47;;;;;;;7.8;3.5;;;;;;;10.15;77.24023;939.5142;;;;
2020/06/02 04:46:12;;;;;;;8.6;4;;;;;;;10.08;77.76172;939.5195;;;;
2020/06/02 04:48:37;;;;;;;7.3;3.5;;;;;;;10.03;78.2666;939.546;;;;
2020/06/02 04:51:03;;;;;;;11.8;3.5;;;;;;;10.14;78.00195;939.4797;;;;
2020/06/02 04:53:29;;;;;;;8.4;3.3;;;;;;;10.22;77.62988;939.5308;;;;
2020/06/02 04:55:54;;;;;;;8.2;3.7;;;;;;;10.22;77.76563;939.5045;;;;
2020/06/02 04:58:19;;;;;;;8.5;3.8;;;;;;;10.28;77.62793;939.5435;;;;
2020/06/02 05:00:47;;;;;;;8.7;3.1;;;;;;;10.42;77.28711;939.5159;;;;
2020/06/02 05:03:12;;;;;;;9.1;3.5;;;;;;;10.87;77.53906;939.5144;;;;
2020/06/02 05:05:38;;;;;;;6.1;2.8;;;;;;;12.59;70.5752;939.4281;;;;
2020/06/02 05:08:05;;;;;;;8.5;3.1;;;;;;;14.7;62.69922;939.491;;;;
2020/06/02 05:10:36;;;;;;;15.9;2.9;;;;;;;16.03;57.84863;939.3635;;;;
2020/06/02 05:13:03;;;;;;;12;2.7;;;;;;;17.34;53.50879;939.3486;;;;
2020/06/02 05:15:37;;;;;;;8.8;2.7;;;;;;;18.17;51.08984;939.3436;;;;
2020/06/02 05:17:56;;;;;;;3.5;1.6;;;;;;;18.79;48.3916;939.3111;;;;
2020/06/02 05:20:21;;;;;;;8.9;2.6;;;;;;;19.13;47.94043;939.3569;;;;
2020/06/02 05:25:23;;;;;;;4.2;1.8;;;;;;;20.28;44.60938;939.2765;;;;
2020/06/02 05:28:01;;;;;;;5.2;1.7;;;;;;;20.81;44.24219;939.2734;;;;
2020/06/02 05:30:41;;;;;;;4.8;2.2;;;;;;;20.66;45.64063;939.28;;;;
2020/06/02 05:40:31;;;;;;;3.6;1.7;;;;;;;20.88;42.92773;939.1624;;;;
2020/06/02 05:43:06;;;;;;;5.8;1.8;;;;;;;20.75;45.70801;939.1433;;;;
2020/06/02 05:49:02;;;;;;;3.7;1.4;;;;;;;22.3;42.18652;939.1646;;;;
2020/06/02 05:50:13;;;;;;;3.9;1.7;;;;;;;24;38.63867;939.1972;;;;
2020/06/02 05:59:47;;;;;;;6.3;1.8;;;;;;;26.06;33.71973;939.1002;;;;
2020/06/02 06:07:13;;;;;;;4.2;1.5;;;;;;;26.81;31.24121;939.0869;;;;
2020/06/02 06:09:39;;;;;;;4.7;1.5;;;;;;;26.77;32.375;939.1616;;;;
2020/06/02 06:14:27;;;;;;;2.9;1.4;;;;;;;25.01;37.06348;939.1253;;;;
2020/06/02 06:16:50;;;;;;;5.6;1.7;;;;;;;26.07;36.67773;939.1838;;;;
2020/06/02 06:19:21;;;;;;;6.8;1.9;;;;;;;27.03;33.78125;939.1299;;;;
2020/06/02 06:21:39;;;;;;;7.9;1.6;;;;;;;26.66;34.72461;939.0964;;;;
2020/06/02 06:23:57;;;;;;;4.2;1.5;;;;;;;26.2;35.77734;939.09;;;;
2020/06/02 06:26:35;;;;;;;4.6;1.5;;;;;;;26.93;34.49707;939.1658;;;;
2020/06/02 06:28:56;;;;;;;4.1;1.7;;;;;;;27.11;32.64941;939.174;;;;
2020/06/02 06:31:18;;;;;;;7.5;1.6;;;;;;;27.05;35.02832;939.1697;;;;
2020/06/02 06:33:38;;;;;;;5.5;1.5;;;;;;;26.72;34.77637;939.1169;;;;
2020/06/02 06:36:12;;;;;;;4.4;1.5;;;;;;;27.64;30.55078;939.1195;;;;
2020/06/02 06:38:40;;;;;;;4.8;1.7;;;;;;;28.33;30.59766;939.0502;;;;
2020/06/02 06:43:43;;;;;;;2.8;1.3;;;;;;;29.85;29.88965;939.1197;;;;
2020/06/02 06:46:10;;;;;;;5.4;1.3;;;;;;;30.74;27.10449;939.0757;;;;
2020/06/02 06:49:09;;;;;;;4.4;1.3;;;;;;;30.78;27.01172;939.0914;;;;
2020/06/02 06:53:34;;;;;;;2.2;1.3;;;;;;;31.67;25.0166;939.1275;;;;
2020/06/02 06:55:56;;;;;;;4;1.3;;;;;;;31.08;27.75977;939.0703;;;;
2020/06/02 06:58:27;;;;;;;3.3;1.2;;;;;;;30.94;27.45117;939.0319;;;;
2020/06/02 07:00:58;;;;;;;4.5;1.3;;;;;;;31.59;26.28125;939.0081;;;;
2020/06/02 07:03:09;;;;;;;3.8;1.2;;;;;;;31.48;26.59863;938.9888;;;;
2020/06/02 07:05:37;;;;;;;3.2;1.2;;;;;;;30.93;26.62598;938.9717;;;;
2020/06/02 07:08:01;;;;;;;5.3;1.3;;;;;;;30.15;28.50098;938.9756;;;;
2020/06/02 07:10:31;;;;;;;4.2;1.3;;;;;;;30.41;28.33887;938.9731;;;;
2020/06/02 07:13:21;;;;;;;6.5;1.3;;;;;;;31.6;26.9043;939.0259;;;;
2020/06/02 07:15:39;;;;;;;10.7;1.6;;;;;;;31.67;27.26855;939.002;;;;
2020/06/02 07:22:57;;;;;;;4.9;1.3;;;;;;;33.42;24.89648;938.9066;;;;
2020/06/02 07:25:24;;;;;;;9.2;1.6;;;;;;;32.7;25.80566;938.8917;;;;
2020/06/02 07:27:49;;;;;;;5.1;1.4;;;;;;;33.25;24.14258;938.8736;;;;
2020/06/02 07:30:17;;;;;;;4.7;1.6;;;;;;;32.89;23.12695;938.9133;;;;
2020/06/02 07:32:43;;;;;;;8.1;1.2;;;;;;;33.41;23.63379;938.8816;;;;
2020/06/02 07:35:07;;;;;;;4.4;1.2;;;;;;;31.78;26.40039;938.8894;;;;
2020/06/02 07:37:38;;;;;;;2.9;1.1;;;;;;;32.46;25.22852;938.8923;;;;
2020/06/02 07:42:33;;;;;;;3.8;1.1;;;;;;;34.11;24.0918;938.8418;;;;
2020/06/02 07:44:58;;;;;;;3.3;1.1;;;;;;;34.39;22.41992;938.8137;;;;
2020/06/02 07:47:19;;;;;;;2.3;0.9;;;;;;;33.91;23.34766;938.8412;;;;
2020/06/02 07:49:41;;;;;;;3.5;1;;;;;;;34.93;22.09668;938.8078;;;;
2020/06/02 07:52:06;;;;;;;1.4;1;;;;;;;35.36;20.89746;938.8198;;;;
2020/06/02 07:54:31;;;;;;;5;1.1;;;;;;;35.54;22.04199;938.7841;;;;
2020/06/02 07:56:56;;;;;;;6.8;1.2;;;;;;;34.42;22.46973;938.6857;;;;
2020/06/02 07:59:21;;;;;;;4.2;0.9;;;;;;;35.13;21.78027;938.7447;;;;
2020/06/02 08:01:53;;;;;;;6.4;1.3;;;;;;;34.7;22.45996;938.7333;;;;
2020/06/02 08:05:16;;;;;;;2.7;1.1;;;;;;;35.87;21.76758;938.7083;;;;
2020/06/02 08:06:44;;;;;;;4;1.1;;;;;;;35.89;20.51074;938.6909;;;;
2020/06/02 08:09:54;;;;;;;4.5;1.1;;;;;;;36.75;19.99316;938.6755;;;;
2020/06/02 08:11:32;;;;;;;4;1.1;;;;;;;36.96;19.55371;938.6024;;;;
2020/06/02 08:13:58;;;;;;;2.9;1;;;;;;;37.23;19.81934;938.6154;;;;
2020/06/02 08:17:20;;;;;;;3;0.9;;;;;;;37.35;19.06152;938.595;;;;
2020/06/02 08:18:50;;;;;;;4.1;0.9;;;;;;;37.23;18.95898;938.5988;;;;
2020/06/02 08:23:37;;;;;;;2.7;1;;;;;;;36.49;18.73438;938.5626;;;;
2020/06/02 08:26:00;;;;;;;4.8;1;;;;;;;36.2;19.81152;938.5439;;;;
2020/06/02 08:28:26;;;;;;;4.4;0.8;;;;;;;35.63;19.47363;938.5408;;;;
2020/06/02 08:31:08;;;;;;;4.4;1;;;;;;;35.7;19.99512;938.5536;;;;
2020/06/02 08:33:16;;;;;;;3.7;1.2;;;;;;;35.19;20.39551;938.5695;;;;
2020/06/02 08:35:46;;;;;;;4.7;1.1;;;;;;;34.91;21.75781;938.5089;;;;
2020/06/02 08:38:18;;;;;;;3;0.8;;;;;;;34.87;20.5498;938.4973;;;;
2020/06/02 08:43:12;;;;;;;5.5;1.1;;;;;;;34.8;21.30664;938.4549;;;;
2020/06/02 08:45:37;;;;;;;5.5;1.2;;;;;;;34.45;21.29004;938.4353;;;;
2020/06/02 08:47:59;;;;;;;3.7;1.1;;;;;;;33.84;22.71777;938.4705;;;;
2020/06/02 08:50:27;;;;;;;8.4;1.3;;;;;;;33.4;23.32129;938.4153;;;;
2020/06/02 08:55:16;;;;;;;1.7;0.8;;;;;;;33.43;23.37109;938.3839;;;;
2020/06/02 08:57:41;;;;;;;6.5;1.1;;;;;;;32.97;23.93555;938.4026;;;;
2020/06/02 09:00:15;;;;;;;2.7;1.1;;;;;;;32.64;24.41016;938.4095;;;;
2020/06/02 09:02:54;;;;;;;4.6;1.1;;;;;;;32.6;25.37988;938.4094;;;;
2020/06/02 09:05:05;;;;;;;6;1.1;;;;;;;32.07;24.54785;938.2868;;;;
2020/06/02 09:07:39;;;;;;;7.3;1.2;;;;;;;31.4;25.63672;938.3242;;;;
2020/06/02 09:14:47;;;;;;;6.7;1.1;;;;;;;30.58;26.96387;938.2783;;;;
2020/06/02 09:17:12;;;;;;;2.6;1.2;;;;;;;30.02;27.77734;938.2303;;;;
2020/06/02 09:19:31;;;;;;;2.2;1.2;;;;;;;29.61;27.89551;938.1802;;;;
2020/06/02 09:21:56;;;;;;;5.9;1.5;;;;;;;29.42;29.73047;938.1803;;;;
2020/06/02 09:24:24;;;;;;;4.8;1.1;;;;;;;29.23;29.93262;938.1697;;;;
2020/06/02 09:26:50;;;;;;;3.5;1;;;;;;;29.69;30.29688;938.1194;;;;
2020/06/02 09:29:22;;;;;;;8.5;1.2;;;;;;;28.93;30.53125;938.0931;;;;
2020/06/02 09:34:22;;;;;;;7.3;1.3;;;;;;;28.32;31.89258;938.0974;;;;
2020/06/02 09:36:49;;;;;;;5.9;1.1;;;;;;;28.55;30.64844;938.0593;;;;
2020/06/02 09:39:04;;;;;;;4.5;1.2;;;;;;;28.35;31.59766;938.0634;;;;
2020/06/02 09:41:29;;;;;;;3.5;1.2;;;;;;;28.62;30.87988;937.9875;;;;
2020/06/02 09:43:54;;;;;;;5.7;1.3;;;;;;;28.43;30.30762;938.0611;;;;
2020/06/02 09:46:22;;;;;;;4.5;1.3;;;;;;;28.51;31.5498;937.9553;;;;
2020/06/02 09:48:47;;;;;;;5.3;1.5;;;;;;;28.43;31.02148;937.9998;;;;
2020/06/02 09:53:37;;;;;;;2.8;1.3;;;;;;;27.67;32.61914;937.9853;;;;
2020/06/02 09:58:31;;;;;;;5.4;1.4;;;;;;;27.68;33.09375;937.9207;;;;
2020/06/02 10:00:53;;;;;;;3.3;1.1;;;;;;;28.01;31.77539;937.8716;;;;
2020/06/02 10:03:18;;;;;;;6.5;1.4;;;;;;;27.45;32.81543;937.9122;;;;
2020/06/02 10:05:43;;;;;;;9.5;1.5;;;;;;;27.34;32.60742;937.9489;;;;
2020/06/02 10:08:11;;;;;;;5.1;1.4;;;;;;;27.05;35.03809;937.899;;;;
2020/06/02 10:10:51;;;;;;;8.3;1.6;;;;;;;26.95;33.91797;937.9083;;;;
2020/06/02 10:13:12;;;;;;;5.3;1.4;;;;;;;26.55;33.93457;937.8575;;;;
2020/06/02 10:15:58;;;;;;;6.2;1.6;;;;;;;26.38;35.875;937.8285;;;;
2020/06/02 10:18:13;;;;;;;4.3;1.3;;;;;;;26.38;34.72656;937.8019;;;;
2020/06/02 10:20:41;;;;;;;5.6;1.2;;;;;;;26.47;34.60352;937.7825;;;;
2020/06/02 10:23:14;;;;;;;6.4;1.7;;;;;;;25.89;35.1377;937.7668;;;;
2020/06/02 10:25:18;;;;;;;2.3;1.1;;;;;;;25.6;35.36328;937.7222;;;;
2020/06/02 10:27:44;;;;;;;2.8;1.4;;;;;;;25.66;36.70313;937.7493;;;;
2020/06/02 10:30:16;;;;;;;7.1;1.5;;;;;;;25.89;37.53809;937.7101;;;;
2020/06/02 10:33:16;;;;;;;3.9;1.3;;;;;;;25.95;35.92285;937.7108;;;;
2020/06/02 10:37:30;;;;;;;6.6;1.5;;;;;;;26.29;35.99707;937.6086;;;;
2020/06/02 10:39:56;;;;;;;6.8;1.1;;;;;;;26.44;34.88574;937.6025;;;;
2020/06/02 10:42:27;;;;;;;5.9;1.2;;;;;;;26.29;35.2998;937.5148;;;;
2020/06/02 10:47:16;;;;;;;4.6;1.1;;;;;;;26.26;35.28516;937.5024;;;;
2020/06/02 10:49:55;;;;;;;3.8;1.1;;;;;;;26.12;33.73633;937.4958;;;;
2020/06/02 10:52:03;;;;;;;4.9;1.2;;;;;;;25.86;35.53809;937.4417;;;;
2020/06/02 10:54:29;;;;;;;2.4;1.2;;;;;;;25.91;34.84375;937.4972;;;;
2020/06/02 10:56:54;;;;;;;6.3;1.1;;;;;;;25.91;35.23438;937.5226;;;;
2020/06/02 11:01:44;;;;;;;4.4;1.3;;;;;;;26.15;34.90918;937.4614;;;;
2020/06/02 11:04:09;;;;;;;9.1;1.6;;;;;;;26.22;32.88086;937.4313;;;;
2020/06/02 11:06:34;;;;;;;5;1.3;;;;;;;26.24;34.8457;937.4716;;;;
2020/06/02 11:09:00;;;;;;;7.6;1.2;;;;;;;25.82;35.34473;937.4964;;;;
2020/06/02 11:11:25;;;;;;;6.1;1.4;;;;;;;25.95;35.7334;937.4611;;;;
2020/06/02 11:13:50;;;;;;;4.9;1.2;;;;;;;25.84;35.09863;937.3631;;;;
2020/06/02 11:16:20;;;;;;;5;1.3;;;;;;;25.96;34.77734;937.4023;;;;
2020/06/02 11:21:25;;;;;;;2.8;1;;;;;;;25.92;35.44727;937.4044;;;;
2020/06/02 11:23:45;;;;;;;3.8;1;;;;;;;26.05;34.33398;937.3834;;;;
2020/06/02 11:25:59;;;;;;;7.8;1.6;;;;;;;26.23;34.70313;937.3365;;;;
2020/06/02 11:33:17;;;;;;;5.3;1.3;;;;;;;25.86;34.03613;937.2548;;;;
2020/06/02 11:35:50;;;;;;;5.7;1.4;;;;;;;25.92;34.26563;937.2411;;;;
2020/06/02 11:38:05;;;;;;;6.7;1.4;;;;;;;26.22;34.13379;937.195;;;;
2020/06/02 11:40:37;;;;;;;3.3;1.1;;;;;;;26.22;34.35938;937.1425;;;;
2020/06/02 11:42:57;;;;;;;2.6;1.1;;;;;;;26.03;33.76465;937.1403;;;;
2020/06/02 11:45:25;;;;;;;4.6;0.9;;;;;;;26.23;33.02246;937.0812;;;;
2020/06/02 11:47:54;;;;;;;3;1;;;;;;;26.42;32.97754;937.0854;;;;
2020/06/02 11:50:27;;;;;;;3.8;1;;;;;;;26.44;33.55957;937.0974;;;;
2020/06/02 11:53:03;;;;;;;8.9;1.1;;;;;;;26.31;34.68652;937.0547;;;;
2020/06/02 11:57:43;;;;;;;5.6;1.2;;;;;;;26.45;34.70801;936.9711;;;;
2020/06/02 12:00:05;;;;;;;4.6;1;;;;;;;26.52;32.28711;936.9286;;;;
2020/06/02 12:02:38;;;;;;;3.5;1.2;;;;;;;26.41;33.25977;936.8736;;;;
2020/06/02 12:04:58;;;;;;;6.3;1.2;;;;;;;26.43;32.6582;936.9476;;;;
2020/06/02 12:10:03;;;;;;;4.4;1.3;;;;;;;26.5;33.26758;936.913;;;;
2020/06/02 12:15:47;;;;;;;6;1.1;;;;;;;26.82;32.60449;936.8954;;;;
2020/06/02 12:17:02;;;;;;;4.2;0.9;;;;;;;26.73;32.7041;936.8734;;;;
2020/06/02 12:19:29;;;;;;;4.8;1;;;;;;;26.88;32.7041;936.8884;;;;
2020/06/02 12:21:58;;;;;;;4.5;1;;;;;;;26.81;33.91895;936.7872;;;;
2020/06/02 12:27:23;;;;;;;3.9;1;;;;;;;26.85;32.16797;936.7894;;;;
2020/06/02 12:31:59;;;;;;;2;0.9;;;;;;;26.89;34.375;936.7508;;;;
2020/06/02 12:34:09;;;;;;;6.1;1;;;;;;;26.89;33.72266;936.7394;;;;
2020/06/02 12:36:46;;;;;;;2.8;1;;;;;;;27.01;31.84766;936.6976;;;;
2020/06/02 12:38:55;;;;;;;3.5;1.1;;;;;;;26.83;32.30859;936.5912;;;;
2020/06/02 12:44:04;;;;;;;3.9;1;;;;;;;26.67;32.25098;936.603;;;;
2020/06/02 12:46:44;;;;;;;3;1;;;;;;;26.5;32.58105;936.5488;;;;
2020/06/02 12:48:45;;;;;;;7.2;1.2;;;;;;;26.39;33.82715;936.5779;;;;
2020/06/02 12:53:43;;;;;;;3.3;1.1;;;;;;;26.71;32.01563;936.45;;;;
2020/06/02 13:03:42;;;;;;;2.3;1;;;;;;;26.44;34.6123;936.4156;;;;
2020/06/02 13:12:51;;;;;;;4.9;1.1;;;;;;;26.33;33.27832;936.3428;;;;
2020/06/02 13:15:31;;;;;;;7.2;1.5;;;;;;;26.43;33.47559;936.3293;;;;
2020/06/02 13:17:52;;;;;;;5.6;1.1;;;;;;;26.3;34.0459;936.2994;;;;
2020/06/02 13:20:12;;;;;;;4.8;1.1;;;;;;;26.06;35.19824;936.3;;;;
2020/06/02 13:22:45;;;;;;;8.4;1.2;;;;;;;26.24;34.26563;936.2783;;;;
2020/06/02 13:29:54;;;;;;;5.3;0.9;;;;;;;26.25;32.07715;936.259;;;;
2020/06/02 13:32:19;;;;;;;4.7;1.1;;;;;;;26.17;32.86523;936.2072;;;;
2020/06/02 13:34:42;;;;;;;16;1.6;;;;;;;26.25;33.33203;936.1367;;;;
2020/06/02 13:38:51;;;;;;;2.8;0.9;;;;;;;26.28;34.1748;936.1092;;;;
2020/06/02 13:39:29;;;;;;;4.4;1.1;;;;;;;26.14;33.35938;936.1297;;;;
2020/06/02 13:41:54;;;;;;;3.8;1;;;;;;;25.93;33.48535;936.0486;;;;
2020/06/02 13:44:52;;;;;;;2.4;1.1;;;;;;;25.91;33.17773;936.0609;;;;
2020/06/02 13:47:07;;;;;;;2.4;1;;;;;;;25.9;33.28223;936.0549;;;;
2020/06/02 13:49:10;;;;;;;3.8;1.1;;;;;;;25.86;32.35742;936.0009;;;;
2020/06/02 13:54:30;;;;;;;1.5;0.9;;;;;;;25.25;32.86816;935.9207;;;;
2020/06/02 14:13:36;;;;;;;9.4;1.4;;;;;;;25.26;33.9668;935.8622;;;;
2020/06/02 14:18:28;;;;;;;3.8;0.9;;;;;;;25.38;33.30273;935.7844;;;;
2020/06/02 14:27:49;;;;;;;18.7;1.8;;;;;;;25.17;34.80957;935.6451;;;;
2020/06/02 14:35:09;;;;;;;5.8;1.1;;;;;;;25.09;33.15234;935.5797;;;;
2020/06/02 14:39:56;;;;;;;6.5;1;;;;;;;24.89;33.84473;935.5463;;;;
2020/06/02 14:42:20;;;;;;;13.4;1.7;;;;;;;24.96;34.49805;935.5225;;;;
2020/06/02 14:47:14;;;;;;;10.6;1.2;;;;;;;24.77;35.76953;935.5356;;;;
2020/06/02 14:49:39;;;;;;;2.8;1.1;;;;;;;24.75;34.69434;935.4747;;;;
2020/06/02 14:52:08;;;;;;;5.8;1;;;;;;;24.65;34.42676;935.4839;;;;
2020/06/02 14:56:10;;;;;;;7.6;1.3;;;;;;;24.52;34.04004;935.4338;;;;
2020/06/02 14:59:28;;;;;;;3.6;1;;;;;;;24.11;34.85742;935.3384;;;;
2020/06/02 15:04:51;;;;;;;11.6;1.2;;;;;;;23.96;36.42285;935.3179;;;;
2020/06/02 15:09:21;;;;;;;4.7;1.1;;;;;;;23.97;35.13965;935.3474;;;;
2020/06/02 15:11:32;;;;;;;8.3;1.1;;;;;;;24.03;35.27344;935.2944;;;;
2020/06/02 15:13:58;;;;;;;10.1;1.2;;;;;;;24.04;34.83887;935.3137;;;;
2020/06/02 15:16:55;;;;;;;4.2;1.1;;;;;;;24.03;35.35742;935.2715;;;;
2020/06/02 15:21:30;;;;;;;7.3;1.3;;;;;;;23.95;36.69238;935.2208;;;;
2020/06/02 15:23:59;;;;;;;3;1.1;;;;;;;24.01;36.46191;935.2123;;;;
2020/06/02 15:26:46;;;;;;;5.8;1.1;;;;;;;23.98;35.35254;935.1273;;;;
2020/06/02 15:33:35;;;;;;;6.5;1.2;;;;;;;23.83;35.70508;935.0506;;;;
2020/06/02 15:35:54;;;;;;;4.1;1.1;;;;;;;23.79;35.31445;935.084;;;;
2020/06/02 15:43:16;;;;;;;4.8;0.9;;;;;;;23.73;36.16797;934.9894;;;;
2020/06/02 15:48:51;;;;;;;11.6;1.2;;;;;;;23.74;35.46387;934.9171;;;;
2020/06/02 15:50:15;;;;;;;5.6;1;;;;;;;23.77;36.40723;934.9839;;;;
2020/06/02 15:52:45;;;;;;;6.7;1.1;;;;;;;23.81;35.77441;934.9586;;;;
2020/06/02 15:55:09;;;;;;;4.1;1.2;;;;;;;23.89;35.51074;934.9583;;;;
2020/06/02 15:57:33;;;;;;;4.8;1;;;;;;;23.74;33.88574;934.9612;;;;
2020/06/02 16:00:00;;;;;;;2.9;1;;;;;;;23.69;35.33008;934.925;;;;
2020/06/02 16:02:40;;;;;;;3.2;0.9;;;;;;;23.68;34.3877;934.9071;;;;
2020/06/02 16:09:43;;;;;;;5.3;1.1;;;;;;;23.69;36.2832;934.9022;;;;
2020/06/02 16:14:36;;;;;;;22;1.8;;;;;;;23.65;35.73828;934.791;;;;
2020/06/02 16:19:25;;;;;;;4.6;1;;;;;;;23.4;36.05957;934.757;;;;
2020/06/02 16:21:49;;;;;;;6.5;1.2;;;;;;;23.44;35.36914;934.7587;;;;
2020/06/02 16:24:21;;;;;;;3.7;1.2;;;;;;;23.31;35.81738;934.7881;;;;
2020/06/02 16:29:07;;;;;;;5.2;0.9;;;;;;;23.25;35.94141;934.6967;;;;
2020/06/02 16:35:06;;;;;;;4.2;1.1;;;;;;;23.33;35.62988;934.7605;;;;
2020/06/02 16:38:48;;;;;;;4;1.2;;;;;;;23.31;35.15918;934.7522;;;;
2020/06/02 16:53:23;;;;;;;2.9;1;;;;;;;23.04;34.64355;934.704;;;;
2020/06/02 16:55:56;;;;;;;4;0.9;;;;;;;22.89;35.95898;934.6033;;;;
2020/06/02 17:05:36;;;;;;;15.4;1.8;;;;;;;22.34;36.23145;934.64;;;;
2020/06/02 17:08:12;;;;;;;9;1.6;;;;;;;22.33;37.0166;934.6437;;;;
2020/06/02 17:10:40;;;;;;;10.4;1.8;;;;;;;22.31;36.20508;934.613;;;;
2020/06/02 17:20:35;;;;;;;11.7;1.8;;;;;;;21.96;36.55273;934.6442;;;;
2020/06/02 17:23:02;;;;;;;7.1;1.2;;;;;;;21.94;36.96094;934.6741;;;;
2020/06/02 17:27:26;;;;;;;4.4;1.2;;;;;;;21.83;36.54102;934.5897;;;;
2020/06/02 17:32:17;;;;;;;5.3;1.2;;;;;;;21.69;36.24902;934.5686;;;;
2020/06/02 17:37:01;;;;;;;3.8;0.9;;;;;;;21.65;35.91797;934.5864;;;;
2020/06/02 17:41:59;;;;;;;5.5;1.1;;;;;;;21.51;36.67969;934.4611;;;;
2020/06/02 17:49:09;;;;;;;4.6;1;;;;;;;21.5;36.29102;934.4578;;;;
2020/06/02 17:51:44;;;;;;;4.7;0.9;;;;;;;21.52;36.22363;934.4925;;;;
2020/06/02 17:54:02;;;;;;;5.4;1;;;;;;;21.49;36.92285;934.4679;;;;
2020/06/02 17:56:31;;;;;;;3.1;1.1;;;;;;;21.51;36.84277;934.5011;;;;
2020/06/02 18:01:17;;;;;;;2.9;1.2;;;;;;;21.12;37.89844;934.5935;;;;
2020/06/02 18:03:47;;;;;;;6.6;1.2;;;;;;;21.13;37.95703;934.5834;;;;
2020/06/02 18:06:21;;;;;;;4.1;1;;;;;;;21.13;37.73535;934.5931;;;;
2020/06/02 18:08:35;;;;;;;4.8;1;;;;;;;21.09;38.52734;934.5864;;;;
2020/06/02 18:13:20;;;;;;;4.2;1.2;;;;;;;20.82;39.18262;934.5862;;;;
2020/06/02 18:15:51;;;;;;;3.2;1.2;;;;;;;20.74;40.97461;934.5622;;;;
2020/06/02 18:18:17;;;;;;;6.4;1.2;;;;;;;20.57;42.55859;934.5824;;;;
2020/06/02 18:20:35;;;;;;;4;1.2;;;;;;;20.33;42.47754;934.5845;;;;
2020/06/02 18:33:00;;;;;;;8.8;1.5;;;;;;;19.58;44.58594;934.6141;;;;
2020/06/02 18:37:43;;;;;;;4.8;1.6;;;;;;;19.6;44.2959;934.6256;;;;
2020/06/02 18:42:30;;;;;;;12;2;;;;;;;19.52;45.02246;934.6133;;;;